Terminal Aerodrome Forecast
Issued by NWS

Home | Current Version | Previous Version | Text Only | Print | Product List | Glossary On
Versions: 1 2 3 4 5 6 7 8 9 10 11 12 13 14 15 16 17 18 19 20
000
FTUS43 KEAX 202300
TAFMKC
TAF
KMKC 202321Z 2100/2124 18007KT P6SM OVC022
     FM211300 18008KT 3SM BR OVC009
     FM211600 19010KT 5SM BR OVC015=

USA.gov is the U.S. government's official web portal to all federal, state and local government web resources and services.